sensor_id;sensor_type;location;lat;lon;timestamp;P1;durP1;ratioP1;P2;durP2;ratioP2
52618;SDS011;38513;53.234;6.568;2022-11-27T00:01:21;27.90;;;10.43;;
52618;SDS011;38513;53.234;6.568;2022-11-27T00:03:47;30.67;;;11.38;;
52618;SDS011;38513;53.234;6.568;2022-11-27T00:06:14;26.60;;;10.80;;
52618;SDS011;38513;53.234;6.568;2022-11-27T00:08:41;28.98;;;11.00;;
52618;SDS011;38513;53.234;6.568;2022-11-27T00:11:08;32.97;;;10.60;;
52618;SDS011;38513;53.234;6.568;2022-11-27T00:13:35;28.35;;;10.57;;
52618;SDS011;38513;53.234;6.568;2022-11-27T00:16:01;30.63;;;10.77;;
52618;SDS011;38513;53.234;6.568;2022-11-27T00:18:27;29.85;;;10.57;;
52618;SDS011;38513;53.234;6.568;2022-11-27T00:20:53;29.02;;;10.18;;
52618;SDS011;38513;53.234;6.568;2022-11-27T00:23:19;31.25;;;10.95;;
52618;SDS011;38513;53.234;6.568;2022-11-27T00:25:52;27.35;;;10.40;;
52618;SDS011;38513;53.234;6.568;2022-11-27T00:28:18;27.23;;;10.50;;
52618;SDS011;38513;53.234;6.568;2022-11-27T00:30:44;30.97;;;10.13;;
52618;SDS011;38513;53.234;6.568;2022-11-27T00:33:11;28.27;;;11.07;;
52618;SDS011;38513;53.234;6.568;2022-11-27T00:35:37;27.33;;;10.55;;
52618;SDS011;38513;53.234;6.568;2022-11-27T00:38:03;31.48;;;10.30;;
52618;SDS011;38513;53.234;6.568;2022-11-27T00:40:29;27.65;;;10.07;;
52618;SDS011;38513;53.234;6.568;2022-11-27T00:42:56;28.40;;;10.45;;
52618;SDS011;38513;53.234;6.568;2022-11-27T00:45:22;27.38;;;10.15;;
52618;SDS011;38513;53.234;6.568;2022-11-27T00:47:48;30.00;;;10.57;;
52618;SDS011;38513;53.234;6.568;2022-11-27T00:50:14;31.92;;;11.20;;
52618;SDS011;38513;53.234;6.568;2022-11-27T00:52:40;26.13;;;10.90;;
52618;SDS011;38513;53.234;6.568;2022-11-27T00:55:07;23.50;;;10.33;;
52618;SDS011;38513;53.234;6.568;2022-11-27T00:57:33;25.60;;;10.25;;
52618;SDS011;38513;53.234;6.568;2022-11-27T00:59:59;28.70;;;10.50;;
52618;SDS011;38513;53.234;6.568;2022-11-27T01:02:28;26.83;;;9.82;;
52618;SDS011;38513;53.234;6.568;2022-11-27T01:04:54;28.20;;;11.18;;
52618;SDS011;38513;53.234;6.568;2022-11-27T01:07:20;26.63;;;10.77;;
52618;SDS011;38513;53.234;6.568;2022-11-27T01:09:47;25.75;;;10.48;;
52618;SDS011;38513;53.234;6.568;2022-11-27T01:12:13;23.17;;;9.90;;
52618;SDS011;38513;53.234;6.568;2022-11-27T01:14:39;28.38;;;10.32;;
52618;SDS011;38513;53.234;6.568;2022-11-27T01:17:05;26.65;;;10.68;;
52618;SDS011;38513;53.234;6.568;2022-11-27T01:19:31;27.05;;;10.45;;
52618;SDS011;38513;53.234;6.568;2022-11-27T01:21:57;27.17;;;10.15;;
52618;SDS011;38513;53.234;6.568;2022-11-27T01:24:23;29.70;;;10.57;;
52618;SDS011;38513;53.234;6.568;2022-11-27T01:26:49;26.40;;;9.93;;
52618;SDS011;38513;53.234;6.568;2022-11-27T01:29:15;27.05;;;10.23;;
52618;SDS011;38513;53.234;6.568;2022-11-27T01:31:45;25.13;;;9.82;;
52618;SDS011;38513;53.234;6.568;2022-11-27T01:34:15;26.17;;;10.25;;
52618;SDS011;38513;53.234;6.568;2022-11-27T01:36:41;22.50;;;9.15;;
52618;SDS011;38513;53.234;6.568;2022-11-27T01:39:15;27.45;;;10.20;;
52618;SDS011;38513;53.234;6.568;2022-11-27T01:41:42;24.58;;;9.57;;
52618;SDS011;38513;53.234;6.568;2022-11-27T01:49:28;23.38;;;9.52;;
52618;SDS011;38513;53.234;6.568;2022-11-27T01:51:58;23.45;;;9.80;;
52618;SDS011;38513;53.234;6.568;2022-11-27T01:54:27;24.08;;;10.05;;
52618;SDS011;38513;53.234;6.568;2022-11-27T01:56:54;28.58;;;10.68;;
52618;SDS011;38513;53.234;6.568;2022-11-27T01:59:21;23.15;;;9.93;;
52618;SDS011;38513;53.234;6.568;2022-11-27T02:01:48;24.75;;;10.00;;
52618;SDS011;38513;53.234;6.568;2022-11-27T02:04:17;22.80;;;10.32;;
52618;SDS011;38513;53.234;6.568;2022-11-27T02:06:46;24.23;;;10.00;;
52618;SDS011;38513;53.234;6.568;2022-11-27T02:09:12;22.50;;;9.73;;
52618;SDS011;38513;53.234;6.568;2022-11-27T02:17:05;23.30;;;10.35;;
52618;SDS011;38513;53.234;6.568;2022-11-27T02:27:55;25.35;;;10.10;;
52618;SDS011;38513;53.234;6.568;2022-11-27T02:30:22;23.70;;;9.70;;
52618;SDS011;38513;53.234;6.568;2022-11-27T02:32:58;26.20;;;10.20;;
52618;SDS011;38513;53.234;6.568;2022-11-27T02:35:26;22.88;;;9.55;;
52618;SDS011;38513;53.234;6.568;2022-11-27T02:40:49;24.85;;;9.88;;
52618;SDS011;38513;53.234;6.568;2022-11-27T02:43:17;22.13;;;9.20;;
52618;SDS011;38513;53.234;6.568;2022-11-27T02:45:46;23.55;;;9.63;;
52618;SDS011;38513;53.234;6.568;2022-11-27T02:48:14;21.63;;;9.23;;
52618;SDS011;38513;53.234;6.568;2022-11-27T02:50:42;22.30;;;9.70;;
52618;SDS011;38513;53.234;6.568;2022-11-27T02:53:20;23.63;;;8.82;;
52618;SDS011;38513;53.234;6.568;2022-11-27T02:55:47;23.88;;;8.85;;
52618;SDS011;38513;53.234;6.568;2022-11-27T02:58:16;23.67;;;8.90;;
52618;SDS011;38513;53.234;6.568;2022-11-27T03:00:42;21.50;;;9.02;;
52618;SDS011;38513;53.234;6.568;2022-11-27T03:03:13;20.23;;;8.93;;
52618;SDS011;38513;53.234;6.568;2022-11-27T03:05:42;21.58;;;8.45;;
52618;SDS011;38513;53.234;6.568;2022-11-27T03:08:16;21.13;;;8.45;;
52618;SDS011;38513;53.234;6.568;2022-11-27T03:13:15;21.57;;;8.67;;
52618;SDS011;38513;53.234;6.568;2022-11-27T03:16:29;19.17;;;8.45;;
52618;SDS011;38513;53.234;6.568;2022-11-27T03:18:30;20.43;;;8.40;;
52618;SDS011;38513;53.234;6.568;2022-11-27T03:21:04;20.13;;;7.97;;
52618;SDS011;38513;53.234;6.568;2022-11-27T03:23:32;19.30;;;8.45;;
52618;SDS011;38513;53.234;6.568;2022-11-27T03:25:58;18.57;;;8.53;;
52618;SDS011;38513;53.234;6.568;2022-11-27T03:28:24;19.80;;;8.35;;
52618;SDS011;38513;53.234;6.568;2022-11-27T03:30:51;18.10;;;8.05;;
52618;SDS011;38513;53.234;6.568;2022-11-27T03:33:17;19.05;;;7.97;;
52618;SDS011;38513;53.234;6.568;2022-11-27T03:35:44;19.73;;;8.40;;
52618;SDS011;38513;53.234;6.568;2022-11-27T03:38:10;18.90;;;8.02;;
52618;SDS011;38513;53.234;6.568;2022-11-27T03:40:51;20.67;;;8.25;;
52618;SDS011;38513;53.234;6.568;2022-11-27T03:43:22;23.35;;;8.38;;
52618;SDS011;38513;53.234;6.568;2022-11-27T03:46:02;18.50;;;8.15;;
52618;SDS011;38513;53.234;6.568;2022-11-27T03:48:37;20.85;;;8.43;;
52618;SDS011;38513;53.234;6.568;2022-11-27T03:53:57;18.52;;;7.50;;
52618;SDS011;38513;53.234;6.568;2022-11-27T03:59:21;17.45;;;7.57;;
52618;SDS011;38513;53.234;6.568;2022-11-27T04:01:48;19.92;;;7.30;;
52618;SDS011;38513;53.234;6.568;2022-11-27T04:04:14;18.95;;;7.93;;
52618;SDS011;38513;53.234;6.568;2022-11-27T04:06:40;23.53;;;7.83;;
52618;SDS011;38513;53.234;6.568;2022-11-27T04:09:06;18.42;;;7.80;;
52618;SDS011;38513;53.234;6.568;2022-11-27T04:11:38;18.35;;;7.43;;
52618;SDS011;38513;53.234;6.568;2022-11-27T04:14:04;19.53;;;8.00;;
52618;SDS011;38513;53.234;6.568;2022-11-27T04:16:30;16.88;;;7.15;;
52618;SDS011;38513;53.234;6.568;2022-11-27T04:18:56;19.08;;;7.50;;
52618;SDS011;38513;53.234;6.568;2022-11-27T04:21:23;19.13;;;7.38;;
52618;SDS011;38513;53.234;6.568;2022-11-27T04:23:49;19.17;;;7.35;;
52618;SDS011;38513;53.234;6.568;2022-11-27T04:26:15;18.52;;;7.65;;
52618;SDS011;38513;53.234;6.568;2022-11-27T04:28:41;16.88;;;7.30;;
52618;SDS011;38513;53.234;6.568;2022-11-27T04:31:07;18.30;;;7.28;;
52618;SDS011;38513;53.234;6.568;2022-11-27T04:33:33;16.00;;;7.25;;
52618;SDS011;38513;53.234;6.568;2022-11-27T04:35:59;15.85;;;6.88;;
52618;SDS011;38513;53.234;6.568;2022-11-27T04:38:26;20.27;;;7.20;;
52618;SDS011;38513;53.234;6.568;2022-11-27T04:40:52;18.05;;;7.22;;
52618;SDS011;38513;53.234;6.568;2022-11-27T04:43:18;17.70;;;7.35;;
52618;SDS011;38513;53.234;6.568;2022-11-27T04:45:44;17.83;;;7.10;;
52618;SDS011;38513;53.234;6.568;2022-11-27T04:48:11;14.93;;;7.15;;
52618;SDS011;38513;53.234;6.568;2022-11-27T04:50:37;17.58;;;7.40;;
52618;SDS011;38513;53.234;6.568;2022-11-27T04:53:03;18.77;;;7.73;;
52618;SDS011;38513;53.234;6.568;2022-11-27T04:55:29;17.80;;;7.70;;
52618;SDS011;38513;53.234;6.568;2022-11-27T04:57:55;20.13;;;6.97;;
52618;SDS011;38513;53.234;6.568;2022-11-27T05:00:21;17.40;;;6.88;;
52618;SDS011;38513;53.234;6.568;2022-11-27T05:02:47;18.17;;;7.45;;
52618;SDS011;38513;53.234;6.568;2022-11-27T05:05:13;17.58;;;7.20;;
52618;SDS011;38513;53.234;6.568;2022-11-27T05:07:41;18.27;;;6.93;;
52618;SDS011;38513;53.234;6.568;2022-11-27T05:10:07;16.85;;;6.63;;
52618;SDS011;38513;53.234;6.568;2022-11-27T05:12:33;17.08;;;6.78;;
52618;SDS011;38513;53.234;6.568;2022-11-27T05:15:02;18.95;;;7.30;;
52618;SDS011;38513;53.234;6.568;2022-11-27T05:17:29;15.98;;;6.30;;
52618;SDS011;38513;53.234;6.568;2022-11-27T05:19:55;16.00;;;7.10;;
52618;SDS011;38513;53.234;6.568;2022-11-27T05:22:21;18.10;;;7.13;;
52618;SDS011;38513;53.234;6.568;2022-11-27T05:24:47;17.60;;;6.88;;
52618;SDS011;38513;53.234;6.568;2022-11-27T05:27:16;16.65;;;6.75;;
52618;SDS011;38513;53.234;6.568;2022-11-27T05:29:42;19.07;;;6.70;;
52618;SDS011;38513;53.234;6.568;2022-11-27T05:32:08;17.95;;;6.50;;
52618;SDS011;38513;53.234;6.568;2022-11-27T05:34:34;16.35;;;6.22;;
52618;SDS011;38513;53.234;6.568;2022-11-27T05:37:00;15.13;;;6.32;;
52618;SDS011;38513;53.234;6.568;2022-11-27T05:39:26;14.63;;;6.28;;
52618;SDS011;38513;53.234;6.568;2022-11-27T05:41:52;13.93;;;6.20;;
52618;SDS011;38513;53.234;6.568;2022-11-27T05:44:18;14.27;;;5.72;;
52618;SDS011;38513;53.234;6.568;2022-11-27T05:46:44;17.38;;;6.15;;
52618;SDS011;38513;53.234;6.568;2022-11-27T05:49:11;16.17;;;5.82;;
52618;SDS011;38513;53.234;6.568;2022-11-27T05:51:37;15.10;;;6.03;;
52618;SDS011;38513;53.234;6.568;2022-11-27T05:54:04;17.05;;;6.03;;
52618;SDS011;38513;53.234;6.568;2022-11-27T05:56:30;16.23;;;6.23;;
52618;SDS011;38513;53.234;6.568;2022-11-27T05:58:56;16.73;;;6.05;;
52618;SDS011;38513;53.234;6.568;2022-11-27T06:01:22;16.75;;;6.25;;
52618;SDS011;38513;53.234;6.568;2022-11-27T06:03:48;17.42;;;6.30;;
52618;SDS011;38513;53.234;6.568;2022-11-27T06:06:15;15.00;;;6.23;;
52618;SDS011;38513;53.234;6.568;2022-11-27T06:08:45;13.23;;;5.80;;
52618;SDS011;38513;53.234;6.568;2022-11-27T06:11:18;14.80;;;5.60;;
52618;SDS011;38513;53.234;6.568;2022-11-27T06:13:45;14.20;;;5.70;;
52618;SDS011;38513;53.234;6.568;2022-11-27T06:16:12;14.02;;;5.65;;
52618;SDS011;38513;53.234;6.568;2022-11-27T06:18:39;16.55;;;5.55;;
52618;SDS011;38513;53.234;6.568;2022-11-27T06:21:08;16.77;;;5.80;;
52618;SDS011;38513;53.234;6.568;2022-11-27T06:23:34;13.55;;;5.55;;
52618;SDS011;38513;53.234;6.568;2022-11-27T06:26:10;16.52;;;5.50;;
52618;SDS011;38513;53.234;6.568;2022-11-27T06:28:37;15.55;;;5.47;;
52618;SDS011;38513;53.234;6.568;2022-11-27T06:31:04;15.00;;;5.15;;
52618;SDS011;38513;53.234;6.568;2022-11-27T06:33:30;18.02;;;5.70;;
52618;SDS011;38513;53.234;6.568;2022-11-27T06:35:59;16.33;;;5.70;;
52618;SDS011;38513;53.234;6.568;2022-11-27T06:38:25;12.23;;;4.97;;
52618;SDS011;38513;53.234;6.568;2022-11-27T06:40:51;15.45;;;5.30;;
52618;SDS011;38513;53.234;6.568;2022-11-27T06:43:18;14.18;;;5.28;;
52618;SDS011;38513;53.234;6.568;2022-11-27T06:45:50;16.70;;;5.20;;
52618;SDS011;38513;53.234;6.568;2022-11-27T06:48:19;14.43;;;5.40;;
52618;SDS011;38513;53.234;6.568;2022-11-27T06:50:45;15.93;;;5.30;;
52618;SDS011;38513;53.234;6.568;2022-11-27T06:53:11;12.95;;;4.90;;
52618;SDS011;38513;53.234;6.568;2022-11-27T06:55:37;14.93;;;5.37;;
52618;SDS011;38513;53.234;6.568;2022-11-27T06:58:03;13.25;;;5.10;;
52618;SDS011;38513;53.234;6.568;2022-11-27T07:00:29;13.52;;;5.00;;
52618;SDS011;38513;53.234;6.568;2022-11-27T07:02:56;16.65;;;5.88;;
52618;SDS011;38513;53.234;6.568;2022-11-27T07:05:22;12.07;;;5.03;;
52618;SDS011;38513;53.234;6.568;2022-11-27T07:07:48;13.00;;;5.28;;
52618;SDS011;38513;53.234;6.568;2022-11-27T07:10:14;14.00;;;4.90;;
52618;SDS011;38513;53.234;6.568;2022-11-27T07:12:41;12.50;;;4.85;;
52618;SDS011;38513;53.234;6.568;2022-11-27T07:15:07;14.95;;;5.50;;
52618;SDS011;38513;53.234;6.568;2022-11-27T07:17:33;12.93;;;5.10;;
52618;SDS011;38513;53.234;6.568;2022-11-27T07:19:59;14.55;;;5.38;;
52618;SDS011;38513;53.234;6.568;2022-11-27T07:22:25;17.27;;;5.53;;
52618;SDS011;38513;53.234;6.568;2022-11-27T07:24:51;11.43;;;5.20;;
52618;SDS011;38513;53.234;6.568;2022-11-27T07:27:19;13.27;;;5.28;;
52618;SDS011;38513;53.234;6.568;2022-11-27T07:29:45;16.23;;;6.00;;
52618;SDS011;38513;53.234;6.568;2022-11-27T07:32:11;14.52;;;5.80;;
52618;SDS011;38513;53.234;6.568;2022-11-27T07:34:37;14.43;;;5.32;;
52618;SDS011;38513;53.234;6.568;2022-11-27T07:37:04;16.40;;;6.05;;
52618;SDS011;38513;53.234;6.568;2022-11-27T07:39:30;13.18;;;5.55;;
52618;SDS011;38513;53.234;6.568;2022-11-27T07:41:56;17.55;;;5.85;;
52618;SDS011;38513;53.234;6.568;2022-11-27T07:44:22;12.13;;;5.35;;
52618;SDS011;38513;53.234;6.568;2022-11-27T07:46:48;14.43;;;6.10;;
52618;SDS011;38513;53.234;6.568;2022-11-27T07:49:14;15.93;;;5.72;;
52618;SDS011;38513;53.234;6.568;2022-11-27T07:51:41;14.63;;;5.80;;
52618;SDS011;38513;53.234;6.568;2022-11-27T07:54:10;13.60;;;5.65;;
52618;SDS011;38513;53.234;6.568;2022-11-27T07:56:36;14.18;;;5.72;;
52618;SDS011;38513;53.234;6.568;2022-11-27T07:59:02;15.03;;;5.63;;
52618;SDS011;38513;53.234;6.568;2022-11-27T08:01:28;14.82;;;6.20;;
52618;SDS011;38513;53.234;6.568;2022-11-27T08:03:55;13.65;;;5.90;;
52618;SDS011;38513;53.234;6.568;2022-11-27T08:06:22;12.43;;;5.68;;
52618;SDS011;38513;53.234;6.568;2022-11-27T08:08:49;15.80;;;6.07;;
52618;SDS011;38513;53.234;6.568;2022-11-27T08:11:19;13.65;;;5.50;;
52618;SDS011;38513;53.234;6.568;2022-11-27T08:13:47;13.52;;;6.15;;
52618;SDS011;38513;53.234;6.568;2022-11-27T08:16:13;15.57;;;6.25;;
52618;SDS011;38513;53.234;6.568;2022-11-27T08:18:39;15.20;;;6.00;;
52618;SDS011;38513;53.234;6.568;2022-11-27T08:21:05;13.38;;;6.13;;
52618;SDS011;38513;53.234;6.568;2022-11-27T08:23:32;13.97;;;6.00;;
52618;SDS011;38513;53.234;6.568;2022-11-27T08:25:58;14.15;;;5.85;;
52618;SDS011;38513;53.234;6.568;2022-11-27T08:28:24;13.52;;;5.68;;
52618;SDS011;38513;53.234;6.568;2022-11-27T08:30:54;11.30;;;6.10;;
52618;SDS011;38513;53.234;6.568;2022-11-27T08:33:20;14.10;;;5.90;;
52618;SDS011;38513;53.234;6.568;2022-11-27T08:35:47;16.75;;;6.47;;
52618;SDS011;38513;53.234;6.568;2022-11-27T08:38:13;16.23;;;6.38;;
52618;SDS011;38513;53.234;6.568;2022-11-27T08:40:39;14.90;;;6.37;;
52618;SDS011;38513;53.234;6.568;2022-11-27T08:43:05;15.15;;;7.15;;
52618;SDS011;38513;53.234;6.568;2022-11-27T08:45:31;14.23;;;6.50;;
52618;SDS011;38513;53.234;6.568;2022-11-27T08:47:58;16.00;;;7.20;;
52618;SDS011;38513;53.234;6.568;2022-11-27T08:50:24;17.52;;;7.15;;
52618;SDS011;38513;53.234;6.568;2022-11-27T08:52:50;15.70;;;6.78;;
52618;SDS011;38513;53.234;6.568;2022-11-27T08:55:16;15.55;;;7.22;;
52618;SDS011;38513;53.234;6.568;2022-11-27T08:57:42;15.85;;;6.90;;
52618;SDS011;38513;53.234;6.568;2022-11-27T09:00:08;15.05;;;7.18;;
52618;SDS011;38513;53.234;6.568;2022-11-27T09:02:35;15.02;;;7.20;;
52618;SDS011;38513;53.234;6.568;2022-11-27T09:05:03;15.68;;;7.38;;
52618;SDS011;38513;53.234;6.568;2022-11-27T09:07:29;16.13;;;7.10;;
52618;SDS011;38513;53.234;6.568;2022-11-27T09:09:56;15.90;;;6.90;;
52618;SDS011;38513;53.234;6.568;2022-11-27T09:12:22;15.18;;;7.68;;
52618;SDS011;38513;53.234;6.568;2022-11-27T09:14:54;18.25;;;7.22;;
52618;SDS011;38513;53.234;6.568;2022-11-27T09:17:20;17.23;;;7.90;;
52618;SDS011;38513;53.234;6.568;2022-11-27T09:19:46;15.93;;;7.45;;
52618;SDS011;38513;53.234;6.568;2022-11-27T09:22:12;17.08;;;7.75;;
52618;SDS011;38513;53.234;6.568;2022-11-27T09:24:38;15.18;;;7.80;;
52618;SDS011;38513;53.234;6.568;2022-11-27T09:27:04;17.00;;;8.15;;
52618;SDS011;38513;53.234;6.568;2022-11-27T09:29:32;15.67;;;8.07;;
52618;SDS011;38513;53.234;6.568;2022-11-27T09:31:59;18.80;;;8.40;;
52618;SDS011;38513;53.234;6.568;2022-11-27T09:34:25;15.27;;;7.85;;
52618;SDS011;38513;53.234;6.568;2022-11-27T09:36:51;16.92;;;8.30;;
52618;SDS011;38513;53.234;6.568;2022-11-27T09:39:17;16.23;;;8.50;;
52618;SDS011;38513;53.234;6.568;2022-11-27T09:44:21;16.58;;;8.20;;
52618;SDS011;38513;53.234;6.568;2022-11-27T09:46:48;15.35;;;8.30;;
52618;SDS011;38513;53.234;6.568;2022-11-27T09:49:17;15.88;;;8.10;;
52618;SDS011;38513;53.234;6.568;2022-11-27T09:52:28;15.68;;;8.55;;
52618;SDS011;38513;53.234;6.568;2022-11-27T09:54:36;18.48;;;9.05;;
52618;SDS011;38513;53.234;6.568;2022-11-27T09:57:05;16.38;;;8.75;;
52618;SDS011;38513;53.234;6.568;2022-11-27T09:59:40;18.20;;;8.55;;
52618;SDS011;38513;53.234;6.568;2022-11-27T10:02:17;17.55;;;8.88;;
52618;SDS011;38513;53.234;6.568;2022-11-27T10:04:43;15.43;;;8.60;;
52618;SDS011;38513;53.234;6.568;2022-11-27T10:07:23;18.00;;;9.30;;
52618;SDS011;38513;53.234;6.568;2022-11-27T10:12:43;18.57;;;9.20;;
52618;SDS011;38513;53.234;6.568;2022-11-27T10:15:14;19.38;;;9.20;;
52618;SDS011;38513;53.234;6.568;2022-11-27T10:20:10;20.08;;;9.25;;
52618;SDS011;38513;53.234;6.568;2022-11-27T10:27:44;21.25;;;9.57;;
52618;SDS011;38513;53.234;6.568;2022-11-27T10:30:14;19.20;;;9.52;;
52618;SDS011;38513;53.234;6.568;2022-11-27T10:32:40;21.15;;;9.93;;
52618;SDS011;38513;53.234;6.568;2022-11-27T10:35:10;19.48;;;9.60;;
52618;SDS011;38513;53.234;6.568;2022-11-27T10:40:32;20.45;;;9.50;;
52618;SDS011;38513;53.234;6.568;2022-11-27T10:43:03;19.30;;;9.70;;
52618;SDS011;38513;53.234;6.568;2022-11-27T10:47:58;20.40;;;10.32;;
52618;SDS011;38513;53.234;6.568;2022-11-27T10:50:24;18.15;;;9.48;;
52618;SDS011;38513;53.234;6.568;2022-11-27T10:52:59;18.38;;;9.82;;
52618;SDS011;38513;53.234;6.568;2022-11-27T11:00:45;18.17;;;9.90;;
52618;SDS011;38513;53.234;6.568;2022-11-27T11:03:13;19.55;;;9.63;;
52618;SDS011;38513;53.234;6.568;2022-11-27T11:05:40;19.25;;;9.85;;
52618;SDS011;38513;53.234;6.568;2022-11-27T11:10:49;18.02;;;9.63;;
52618;SDS011;38513;53.234;6.568;2022-11-27T11:13:26;19.67;;;9.63;;
52618;SDS011;38513;53.234;6.568;2022-11-27T11:18:25;18.13;;;9.90;;
52618;SDS011;38513;53.234;6.568;2022-11-27T11:20:52;19.40;;;9.88;;
52618;SDS011;38513;53.234;6.568;2022-11-27T11:23:20;19.73;;;9.80;;
52618;SDS011;38513;53.234;6.568;2022-11-27T11:25:50;19.15;;;10.27;;
52618;SDS011;38513;53.234;6.568;2022-11-27T11:28:18;17.75;;;9.00;;
52618;SDS011;38513;53.234;6.568;2022-11-27T11:30:55;18.90;;;9.27;;
52618;SDS011;38513;53.234;6.568;2022-11-27T11:33:22;23.30;;;10.25;;
52618;SDS011;38513;53.234;6.568;2022-11-27T11:35:52;20.95;;;9.77;;
52618;SDS011;38513;53.234;6.568;2022-11-27T11:38:21;19.20;;;9.30;;
52618;SDS011;38513;53.234;6.568;2022-11-27T11:40:57;17.90;;;9.35;;
52618;SDS011;38513;53.234;6.568;2022-11-27T11:43:25;17.77;;;9.60;;
52618;SDS011;38513;53.234;6.568;2022-11-27T11:45:51;18.15;;;9.70;;
52618;SDS011;38513;53.234;6.568;2022-11-27T11:48:27;19.50;;;9.43;;
52618;SDS011;38513;53.234;6.568;2022-11-27T11:50:57;17.50;;;9.93;;
52618;SDS011;38513;53.234;6.568;2022-11-27T11:53:36;18.30;;;9.60;;
52618;SDS011;38513;53.234;6.568;2022-11-27T12:01:54;20.90;;;10.50;;
52618;SDS011;38513;53.234;6.568;2022-11-27T12:12:41;18.55;;;9.60;;
52618;SDS011;38513;53.234;6.568;2022-11-27T12:15:28;18.77;;;9.73;;
52618;SDS011;38513;53.234;6.568;2022-11-27T12:25:36;19.20;;;10.10;;
52618;SDS011;38513;53.234;6.568;2022-11-27T12:41:36;17.35;;;9.65;;
52618;SDS011;38513;53.234;6.568;2022-11-27T12:44:02;17.73;;;9.82;;
52618;SDS011;38513;53.234;6.568;2022-11-27T12:49:04;18.55;;;9.90;;
52618;SDS011;38513;53.234;6.568;2022-11-27T12:51:46;18.95;;;9.85;;
52618;SDS011;38513;53.234;6.568;2022-11-27T12:54:21;16.77;;;9.73;;
52618;SDS011;38513;53.234;6.568;2022-11-27T12:56:57;19.05;;;9.95;;
52618;SDS011;38513;53.234;6.568;2022-11-27T13:04:50;15.98;;;9.15;;
52618;SDS011;38513;53.234;6.568;2022-11-27T13:07:26;18.08;;;9.88;;
52618;SDS011;38513;53.234;6.568;2022-11-27T13:12:21;15.93;;;8.85;;
52618;SDS011;38513;53.234;6.568;2022-11-27T13:14:50;16.83;;;8.97;;
52618;SDS011;38513;53.234;6.568;2022-11-27T13:17:18;18.23;;;9.25;;
52618;SDS011;38513;53.234;6.568;2022-11-27T13:19:46;18.88;;;9.18;;
52618;SDS011;38513;53.234;6.568;2022-11-27T13:22:15;15.05;;;9.10;;
52618;SDS011;38513;53.234;6.568;2022-11-27T13:24:45;17.67;;;9.77;;
52618;SDS011;38513;53.234;6.568;2022-11-27T13:27:15;19.50;;;9.50;;
52618;SDS011;38513;53.234;6.568;2022-11-27T13:32:20;17.95;;;9.02;;
52618;SDS011;38513;53.234;6.568;2022-11-27T13:34:49;16.65;;;8.93;;
52618;SDS011;38513;53.234;6.568;2022-11-27T13:40:20;17.08;;;9.07;;
52618;SDS011;38513;53.234;6.568;2022-11-27T13:42:50;15.77;;;8.80;;
52618;SDS011;38513;53.234;6.568;2022-11-27T13:45:30;15.50;;;9.07;;
52618;SDS011;38513;53.234;6.568;2022-11-27T13:47:57;16.95;;;9.07;;
52618;SDS011;38513;53.234;6.568;2022-11-27T13:50:24;16.23;;;8.57;;
52618;SDS011;38513;53.234;6.568;2022-11-27T13:52:58;14.93;;;8.80;;
52618;SDS011;38513;53.234;6.568;2022-11-27T13:55:31;14.68;;;9.18;;
52618;SDS011;38513;53.234;6.568;2022-11-27T13:57:58;17.13;;;9.10;;
52618;SDS011;38513;53.234;6.568;2022-11-27T14:00:38;16.52;;;9.55;;
52618;SDS011;38513;53.234;6.568;2022-11-27T14:03:06;16.88;;;9.52;;
52618;SDS011;38513;53.234;6.568;2022-11-27T14:08:13;16.23;;;9.73;;
52618;SDS011;38513;53.234;6.568;2022-11-27T14:10:46;16.47;;;9.47;;
52618;SDS011;38513;53.234;6.568;2022-11-27T14:13:13;16.35;;;9.43;;
52618;SDS011;38513;53.234;6.568;2022-11-27T14:15:39;16.20;;;9.45;;
52618;SDS011;38513;53.234;6.568;2022-11-27T14:20:35;14.82;;;9.73;;
52618;SDS011;38513;53.234;6.568;2022-11-27T14:23:02;15.52;;;9.50;;
52618;SDS011;38513;53.234;6.568;2022-11-27T14:25:29;18.15;;;9.80;;
52618;SDS011;38513;53.234;6.568;2022-11-27T14:28:13;17.50;;;9.80;;
52618;SDS011;38513;53.234;6.568;2022-11-27T14:30:48;15.93;;;9.45;;
52618;SDS011;38513;53.234;6.568;2022-11-27T14:33:15;17.63;;;9.43;;
52618;SDS011;38513;53.234;6.568;2022-11-27T14:35:49;16.23;;;9.15;;
52618;SDS011;38513;53.234;6.568;2022-11-27T14:38:16;16.58;;;9.45;;
52618;SDS011;38513;53.234;6.568;2022-11-27T14:40:42;17.20;;;9.65;;
52618;SDS011;38513;53.234;6.568;2022-11-27T14:43:09;16.35;;;9.10;;
52618;SDS011;38513;53.234;6.568;2022-11-27T14:45:35;17.30;;;9.70;;
52618;SDS011;38513;53.234;6.568;2022-11-27T14:48:02;17.80;;;9.73;;
52618;SDS011;38513;53.234;6.568;2022-11-27T14:50:28;17.13;;;8.95;;
52618;SDS011;38513;53.234;6.568;2022-11-27T14:52:55;17.90;;;9.20;;
52618;SDS011;38513;53.234;6.568;2022-11-27T14:55:21;15.23;;;9.13;;
52618;SDS011;38513;53.234;6.568;2022-11-27T14:57:48;15.98;;;9.45;;
52618;SDS011;38513;53.234;6.568;2022-11-27T15:00:25;15.80;;;9.15;;
52618;SDS011;38513;53.234;6.568;2022-11-27T15:02:51;17.35;;;9.35;;
52618;SDS011;38513;53.234;6.568;2022-11-27T15:05:25;15.85;;;9.13;;
52618;SDS011;38513;53.234;6.568;2022-11-27T15:07:55;17.00;;;9.55;;
52618;SDS011;38513;53.234;6.568;2022-11-27T15:10:34;18.02;;;10.07;;
52618;SDS011;38513;53.234;6.568;2022-11-27T15:13:01;15.82;;;10.10;;
52618;SDS011;38513;53.234;6.568;2022-11-27T15:15:32;17.80;;;11.07;;
52618;SDS011;38513;53.234;6.568;2022-11-27T15:18:01;18.33;;;11.68;;
52618;SDS011;38513;53.234;6.568;2022-11-27T15:20:41;18.08;;;11.40;;
52618;SDS011;38513;53.234;6.568;2022-11-27T15:23:30;20.45;;;11.85;;
52618;SDS011;38513;53.234;6.568;2022-11-27T15:26:10;18.70;;;11.40;;
52618;SDS011;38513;53.234;6.568;2022-11-27T15:39:18;21.40;;;12.48;;
52618;SDS011;38513;53.234;6.568;2022-11-27T15:42:01;20.02;;;12.38;;
52618;SDS011;38513;53.234;6.568;2022-11-27T15:44:28;20.95;;;12.07;;
52618;SDS011;38513;53.234;6.568;2022-11-27T15:46:55;19.52;;;12.38;;
52618;SDS011;38513;53.234;6.568;2022-11-27T15:49:25;19.55;;;12.23;;
52618;SDS011;38513;53.234;6.568;2022-11-27T15:51:55;21.75;;;12.90;;
52618;SDS011;38513;53.234;6.568;2022-11-27T15:54:21;22.15;;;13.05;;
52618;SDS011;38513;53.234;6.568;2022-11-27T15:56:47;21.38;;;13.40;;
52618;SDS011;38513;53.234;6.568;2022-11-27T15:59:14;21.70;;;13.25;;
52618;SDS011;38513;53.234;6.568;2022-11-27T16:01:44;22.13;;;13.35;;
52618;SDS011;38513;53.234;6.568;2022-11-27T16:04:10;21.63;;;14.27;;
52618;SDS011;38513;53.234;6.568;2022-11-27T16:06:36;23.73;;;14.27;;
52618;SDS011;38513;53.234;6.568;2022-11-27T16:09:03;22.10;;;13.57;;
52618;SDS011;38513;53.234;6.568;2022-11-27T16:11:32;22.40;;;13.82;;
52618;SDS011;38513;53.234;6.568;2022-11-27T16:13:58;22.92;;;14.00;;
52618;SDS011;38513;53.234;6.568;2022-11-27T16:16:25;20.90;;;13.90;;
52618;SDS011;38513;53.234;6.568;2022-11-27T16:18:54;20.98;;;13.43;;
52618;SDS011;38513;53.234;6.568;2022-11-27T16:21:20;24.70;;;14.50;;
52618;SDS011;38513;53.234;6.568;2022-11-27T16:23:49;21.15;;;13.38;;
52618;SDS011;38513;53.234;6.568;2022-11-27T16:26:15;23.48;;;14.95;;
52618;SDS011;38513;53.234;6.568;2022-11-27T16:28:41;25.13;;;15.38;;
52618;SDS011;38513;53.234;6.568;2022-11-27T16:31:11;25.45;;;15.55;;
52618;SDS011;38513;53.234;6.568;2022-11-27T16:33:40;21.85;;;14.63;;
52618;SDS011;38513;53.234;6.568;2022-11-27T16:36:11;23.48;;;14.63;;
52618;SDS011;38513;53.234;6.568;2022-11-27T16:38:40;27.75;;;15.82;;
52618;SDS011;38513;53.234;6.568;2022-11-27T16:41:07;23.73;;;15.20;;
52618;SDS011;38513;53.234;6.568;2022-11-27T16:43:35;25.02;;;16.02;;